Time;durP1;ratioP1;P1;durP2;ratioP2;P2;SDS_P1;SDS_P2;PMS_P1;PMS_P2;Temp;Humidity;BMP_temperature;BMP_pressure;BME280_temperature;BME280_humidity;BME280_pressure;Samples;Min_cycle;Max_cycle;Signal;HPM_P1;HPM_P2
2021/05/25 00:01:47;;;;;;;4.63;2.97;;;19.80;82.40;;;;;;5073666;28;20111;-52
2021/05/25 00:04:14;;;;;;;17.83;4.50;;;19.90;81.30;;;;;;5073324;28;20024;-56
2021/05/25 00:06:42;;;;;;;5.28;3.17;;;20.00;81.10;;;;;;5073260;28;20389;-52
2021/05/25 00:09:09;;;;;;;19.58;5.90;;;20.00;80.60;;;;;;5073273;28;20112;-53
2021/05/25 00:11:36;;;;;;;6.20;4.53;;;20.20;81.00;;;;;;5073442;28;20047;-51
2021/05/25 00:14:04;;;;;;;6.63;3.80;;;20.20;80.40;;;;;;5073109;28;20428;-50
2021/05/25 00:16:32;;;;;;;6.13;3.88;;;20.40;79.80;;;;;;5072679;28;20066;-54
2021/05/25 00:18:59;;;;;;;6.20;3.22;;;20.40;79.40;;;;;;5073014;28;20016;-53
2021/05/25 00:21:26;;;;;;;8.10;3.85;;;20.50;79.00;;;;;;5073233;28;20021;-50
2021/05/25 00:23:54;;;;;;;11.60;4.20;;;20.60;78.90;;;;;;5073016;28;20036;-54
2021/05/25 00:26:21;;;;;;;6.45;3.35;;;20.70;78.50;;;;;;5072704;28;20036;-58
2021/05/25 00:28:48;;;;;;;4.90;3.38;;;20.70;78.20;;;;;;5072520;28;20093;-56
2021/05/25 00:31:16;;;;;;;7.57;4.35;;;20.70;78.20;;;;;;5073188;28;20082;-55
2021/05/25 00:33:43;;;;;;;8.82;5.45;;;20.80;77.70;;;;;;5073057;28;20032;-53
2021/05/25 00:36:11;;;;;;;5.85;3.67;;;21.00;77.50;;;;;;5073087;28;20033;-58
2021/05/25 00:38:39;;;;;;;10.30;4.28;;;21.10;76.70;;;;;;5073034;28;20363;-49
2021/05/25 00:41:06;;;;;;;5.10;3.67;;;21.20;76.50;;;;;;5072755;28;20021;-53
2021/05/25 00:43:33;;;;;;;5.05;3.47;;;21.20;76.40;;;;;;5073049;28;20031;-57
2021/05/25 00:46:01;;;;;;;4.90;3.78;;;21.20;76.10;;;;;;5072718;28;20422;-50
2021/05/25 00:48:28;;;;;;;5.63;4.13;;;21.30;76.00;;;;;;5072480;28;20047;-49
2021/05/25 00:50:55;;;;;;;7.03;4.15;;;21.40;76.00;;;;;;5073072;28;20028;-45
2021/05/25 00:53:23;;;;;;;5.20;3.67;;;21.60;75.10;;;;;;5072920;28;20370;-47
2021/05/25 00:55:51;;;;;;;7.18;4.30;;;21.60;74.90;;;;;;5072453;28;20058;-52
2021/05/25 00:58:20;;;;;;;4.93;3.50;;;21.70;75.40;;;;;;5072536;28;20052;-50
2021/05/25 01:00:48;;;;;;;5.78;3.90;;;21.70;74.60;;;;;;5071727;28;20025;-52
2021/05/25 01:03:19;;;;;;;6.72;3.72;;;21.70;74.80;;;;;;5072274;28;20043;-59
2021/05/25 01:05:47;;;;;;;5.60;3.42;;;21.70;74.80;;;;;;5072493;28;20068;-57
2021/05/25 01:08:15;;;;;;;5.90;3.22;;;21.70;74.70;;;;;;5072473;28;20036;-54
2021/05/25 01:10:51;;;;;;;5.72;3.22;;;21.60;75.10;;;;;;5071898;28;20040;-55
2021/05/25 01:13:21;;;;;;;4.45;3.33;;;21.80;74.30;;;;;;5072341;28;20063;-48
2021/05/25 01:15:51;;;;;;;7.53;3.63;;;21.90;73.80;;;;;;5072359;28;20407;-53
2021/05/25 01:18:19;;;;;;;6.18;3.30;;;22.00;73.50;;;;;;5070839;28;20097;-54
2021/05/25 01:20:49;;;;;;;6.35;3.78;;;21.90;73.90;;;;;;5072146;28;20028;-48
2021/05/25 01:23:18;;;;;;;5.22;3.47;;;21.90;74.00;;;;;;5072294;28;20105;-50
2021/05/25 01:25:49;;;;;;;9.98;3.97;;;22.20;73.20;;;;;;5072126;28;20036;-54
2021/05/25 01:28:19;;;;;;;12.13;3.53;;;22.20;73.10;;;;;;5072252;28;20024;-58
2021/05/25 01:30:50;;;;;;;4.40;3.28;;;22.30;72.70;;;;;;5073001;28;20140;-60
2021/05/25 01:33:18;;;;;;;5.53;3.17;;;22.30;72.40;;;;;;5072441;28;20025;-54
2021/05/25 01:35:46;;;;;;;6.57;2.85;;;22.50;69.50;;;;;;5072580;28;20103;-58
2021/05/25 01:38:16;;;;;;;5.25;3.22;;;22.50;70.50;;;;;;5071854;28;20062;-61
2021/05/25 01:40:45;;;;;;;6.43;3.20;;;22.40;72.10;;;;;;5072132;28;20035;-61
2021/05/25 01:43:13;;;;;;;4.07;2.65;;;22.50;71.30;;;;;;5072284;28;20081;-54
2021/05/25 01:45:41;;;;;;;6.55;2.83;;;22.50;72.10;;;;;;5071987;28;20234;-53
2021/05/25 01:48:10;;;;;;;4.65;3.00;;;22.60;69.50;;;;;;5070635;28;20021;-60
2021/05/25 01:50:39;;;;;;;7.03;2.80;;;22.50;70.80;;;;;;5071552;28;20482;-55
2021/05/25 01:53:17;;;;;;;4.70;2.88;;;22.60;71.20;;;;;;5070449;28;20029;-57
2021/05/25 01:55:51;;;;;;;5.35;3.13;;;22.60;71.10;;;;;;5072094;28;20055;-53
2021/05/25 01:58:32;;;;;;;5.22;2.90;;;22.80;71.30;;;;;;5071846;28;20118;-58
2021/05/25 02:01:05;;;;;;;5.38;2.70;;;22.80;68.10;;;;;;5071789;28;20024;-53
2021/05/25 02:03:33;;;;;;;4.90;2.53;;;22.70;70.70;;;;;;5071732;28;20028;-58
2021/05/25 02:06:00;;;;;;;2.75;2.00;;;22.80;70.60;;;;;;5071751;28;20032;-53
2021/05/25 02:08:28;;;;;;;6.50;2.22;;;22.80;69.90;;;;;;5071660;28;20029;-57
2021/05/25 02:10:59;;;;;;;4.60;2.50;;;22.70;71.10;;;;;;5071658;28;20052;-57
2021/05/25 02:13:35;;;;;;;4.63;2.30;;;22.60;72.30;;;;;;5071819;28;20025;-59
2021/05/25 02:16:06;;;;;;;3.40;2.20;;;22.70;70.10;;;;;;5071547;28;20071;-51
2021/05/25 02:18:43;;;;;;;3.92;2.17;;;22.80;69.60;;;;;;5071407;28;20024;-48
2021/05/25 02:21:13;;;;;;;5.10;2.25;;;22.70;70.10;;;;;;5071697;28;20029;-53
2021/05/25 02:23:43;;;;;;;5.65;2.60;;;22.70;70.30;;;;;;5068389;28;20581;-56
2021/05/25 02:26:12;;;;;;;5.07;2.10;;;22.70;71.30;;;;;;5071707;28;20076;-46
2021/05/25 02:28:39;;;;;;;5.35;2.00;;;22.70;71.60;;;;;;5071529;28;20444;-56
2021/05/25 02:31:08;;;;;;;3.00;1.95;;;22.60;69.80;;;;;;5071644;28;20028;-50
2021/05/25 02:33:35;;;;;;;2.10;1.48;;;22.70;70.70;;;;;;5071226;28;20031;-56
2021/05/25 02:36:04;;;;;;;4.00;2.33;;;22.60;67.40;;;;;;5071394;28;20020;-51
2021/05/25 02:38:32;;;;;;;3.90;2.20;;;22.70;68.60;;;;;;5073036;28;20020;-60
2021/05/25 02:41:00;;;;;;;3.63;1.70;;;22.80;71.10;;;;;;5075446;28;20474;-63
2021/05/25 02:43:29;;;;;;;5.18;2.78;;;22.60;67.70;;;;;;5075311;28;20032;-63
2021/05/25 02:45:57;;;;;;;4.57;2.10;;;22.80;71.50;;;;;;5073942;28;20117;-51
2021/05/25 02:48:25;;;;;;;1.95;1.30;;;22.80;71.80;;;;;;5075342;28;20039;-55
2021/05/25 02:50:52;;;;;;;2.78;1.50;;;22.80;66.50;;;;;;5074749;28;20135;-61
2021/05/25 02:53:20;;;;;;;2.53;1.75;;;22.90;68.20;;;;;;5075148;28;20486;-61
2021/05/25 02:55:48;;;;;;;4.25;2.10;;;22.90;69.00;;;;;;5074596;28;20028;-61
2021/05/25 02:58:16;;;;;;;6.45;1.30;;;22.90;70.60;;;;;;5074891;28;20371;-59
2021/05/25 03:00:46;;;;;;;3.80;1.38;;;23.00;68.00;;;;;;5074917;28;20103;-60
2021/05/25 03:03:14;;;;;;;2.20;1.50;;;23.20;68.00;;;;;;5075165;28;20040;-60
2021/05/25 03:05:43;;;;;;;3.55;1.70;;;23.30;69.40;;;;;;5074419;28;20417;-61
2021/05/25 03:08:12;;;;;;;3.35;1.55;;;23.30;67.70;;;;;;5075115;28;20348;-60
2021/05/25 03:10:45;;;;;;;6.10;1.75;;;23.20;69.20;;;;;;5074496;28;20044;-59
2021/05/25 03:13:13;;;;;;;2.90;1.70;;;23.20;69.50;;;;;;5074594;28;20027;-59
2021/05/25 03:15:43;;;;;;;2.80;1.60;;;23.30;69.20;;;;;;5074853;28;20077;-61
2021/05/25 03:18:12;;;;;;;4.75;1.30;;;23.50;67.00;;;;;;5074524;28;20037;-59
2021/05/25 03:20:43;;;;;;;10.50;2.35;;;23.50;65.20;;;;;;5073944;28;20071;-57
2021/05/25 03:23:10;;;;;;;3.13;1.70;;;23.70;64.80;;;;;;5074761;28;20037;-60
2021/05/25 03:25:38;;;;;;;2.97;1.30;;;23.70;66.20;;;;;;5074170;28;20044;-60
2021/05/25 03:28:07;;;;;;;2.22;1.50;;;23.80;66.30;;;;;;5074370;28;20029;-55
2021/05/25 03:30:37;;;;;;;4.03;1.40;;;23.80;66.90;;;;;;5074063;28;20024;-57
2021/05/25 03:33:05;;;;;;;2.97;1.50;;;23.70;66.10;;;;;;5074218;28;20035;-57
2021/05/25 03:35:32;;;;;;;4.57;1.83;;;23.80;64.90;;;;;;5074292;28;20118;-56
2021/05/25 03:38:00;;;;;;;6.13;2.13;;;23.60;66.50;;;;;;5074065;28;20044;-56
2021/05/25 03:40:27;;;;;;;2.13;1.33;;;23.70;65.40;;;;;;5073768;28;20039;-50
2021/05/25 03:42:55;;;;;;;7.78;1.75;;;23.60;68.00;;;;;;5073835;28;20028;-57
2021/05/25 03:45:24;;;;;;;3.10;1.48;;;23.50;68.50;;;;;;5073837;28;20093;-58
2021/05/25 03:47:52;;;;;;;5.03;1.98;;;23.40;69.40;;;;;;5072592;28;20021;-60
2021/05/25 03:50:20;;;;;;;2.38;1.50;;;23.40;68.80;;;;;;5072270;28;20479;-62
2021/05/25 03:52:54;;;;;;;4.60;1.70;;;23.40;69.60;;;;;;5073707;28;20107;-55
2021/05/25 04:01:02;;;;;;;3.08;1.48;;;23.50;67.10;;;;;;5074151;28;20028;-54
2021/05/25 04:03:29;;;;;;;1.60;1.08;;;23.50;69.10;;;;;;5073788;28;20040;-54
2021/05/25 04:05:57;;;;;;;4.35;1.67;;;23.50;69.30;;;;;;5073230;28;20041;-61
2021/05/25 04:08:24;;;;;;;3.67;1.90;;;23.60;69.00;;;;;;5073671;28;20025;-58
2021/05/25 04:10:52;;;;;;;3.03;1.90;;;23.70;66.90;;;;;;5073640;28;20333;-51
2021/05/25 04:13:19;;;;;;;3.42;1.67;;;23.70;68.60;;;;;;5055358;28;20478;-44
2021/05/25 04:15:52;;;;;;;4.47;1.90;;;23.70;68.90;;;;;;5073385;28;20026;-46
2021/05/25 04:18:20;;;;;;;3.28;1.88;;;23.80;67.80;;;;;;5073796;28;20036;-50
2021/05/25 04:20:48;;;;;;;4.30;1.42;;;23.90;68.20;;;;;;5073294;28;20027;-51
2021/05/25 04:23:16;;;;;;;2.70;1.60;;;23.80;68.50;;;;;;5073185;28;20025;-56
2021/05/25 04:25:43;;;;;;;3.75;1.83;;;23.70;67.50;;;;;;5073605;28;20228;-52
2021/05/25 04:28:11;;;;;;;11.20;2.55;;;23.70;67.50;;;;;;5073525;28;20096;-53
2021/05/25 04:30:39;;;;;;;3.42;1.67;;;23.80;68.20;;;;;;5072942;28;20028;-61
2021/05/25 04:33:06;;;;;;;11.52;2.17;;;23.80;68.00;;;;;;5073359;28;20032;-52
2021/05/25 04:35:34;;;;;;;3.20;1.50;;;23.70;66.90;;;;;;5072173;28;20036;-54
2021/05/25 04:38:03;;;;;;;2.92;1.40;;;23.60;68.20;;;;;;5072989;28;20038;-62
2021/05/25 04:40:32;;;;;;;9.88;1.92;;;23.50;69.30;;;;;;5072702;28;20035;-55
2021/05/25 04:43:00;;;;;;;8.70;2.00;;;23.70;66.90;;;;;;5072445;28;20016;-56
2021/05/25 04:45:28;;;;;;;3.22;1.42;;;23.80;66.70;;;;;;5072565;28;20043;-48
2021/05/25 04:47:55;;;;;;;3.40;1.38;;;23.60;68.80;;;;;;5072162;28;20439;-61
2021/05/25 04:50:23;;;;;;;2.70;1.30;;;23.70;66.40;;;;;;5071929;28;20029;-48
2021/05/25 04:52:51;;;;;;;4.50;1.50;;;23.70;68.40;;;;;;5072195;28;20028;-60
2021/05/25 04:55:21;;;;;;;7.18;2.55;;;23.70;68.70;;;;;;5072546;28;20028;-58
2021/05/25 04:57:49;;;;;;;5.88;2.17;;;23.60;68.20;;;;;;5072396;28;20052;-58
2021/05/25 05:00:19;;;;;;;7.05;1.80;;;23.50;68.10;;;;;;5072369;28;20044;-56
2021/05/25 05:02:47;;;;;;;3.25;1.38;;;23.60;67.70;;;;;;5072318;28;20020;-59
2021/05/25 05:05:15;;;;;;;2.90;1.40;;;23.40;69.30;;;;;;5072197;28;20132;-60
2021/05/25 05:07:43;;;;;;;5.70;1.58;;;23.40;69.70;;;;;;5072357;28;20040;-53
2021/05/25 05:10:11;;;;;;;7.05;1.80;;;23.40;69.30;;;;;;5071798;28;20078;-57
2021/05/25 05:12:39;;;;;;;5.40;1.90;;;23.30;68.60;;;;;;5071663;28;20033;-59
2021/05/25 05:15:08;;;;;;;3.35;1.55;;;23.20;68.30;;;;;;5072227;28;20116;-59
2021/05/25 05:17:36;;;;;;;3.97;1.60;;;23.20;69.10;;;;;;5071644;28;20206;-60
2021/05/25 05:20:06;;;;;;;4.18;1.50;;;23.10;70.90;;;;;;5072243;28;20024;-62
2021/05/25 05:22:33;;;;;;;9.52;2.90;;;23.10;70.20;;;;;;5072104;28;20066;-62
2021/05/25 05:25:01;;;;;;;9.35;2.40;;;23.20;67.70;;;;;;5068861;28;20021;-61
2021/05/25 05:27:28;;;;;;;5.15;1.80;;;23.20;67.20;;;;;;5072329;28;20032;-54
2021/05/25 05:29:56;;;;;;;10.43;1.77;;;23.20;68.40;;;;;;5072493;28;20364;-59
2021/05/25 05:32:23;;;;;;;4.53;1.98;;;23.10;68.80;;;;;;5072051;28;20029;-55
2021/05/25 05:34:50;;;;;;;1.73;1.20;;;23.00;68.80;;;;;;5071919;28;20056;-60
2021/05/25 05:37:18;;;;;;;7.30;1.90;;;22.80;70.40;;;;;;5070430;28;20020;-63
2021/05/25 05:39:45;;;;;;;6.20;1.60;;;22.70;68.80;;;;;;5072110;28;20109;-58
2021/05/25 05:42:13;;;;;;;4.45;1.80;;;22.70;68.50;;;;;;5071994;28;20039;-55
2021/05/25 05:44:40;;;;;;;10.75;2.03;;;22.60;69.80;;;;;;5071162;28;20036;-58
2021/05/25 05:47:08;;;;;;;7.85;1.90;;;22.40;69.50;;;;;;5070398;28;20070;-46
2021/05/25 05:49:36;;;;;;;6.95;1.73;;;22.30;71.10;;;;;;5063108;28;20427;-55
2021/05/25 05:52:04;;;;;;;5.63;1.92;;;22.10;72.10;;;;;;5066295;28;20032;-47
2021/05/25 05:54:31;;;;;;;5.28;1.63;;;21.90;73.30;;;;;;5068867;28;20107;-50
2021/05/25 05:56:58;;;;;;;3.25;1.30;;;21.80;72.90;;;;;;5069083;28;20032;-59
2021/05/25 05:59:26;;;;;;;6.68;1.75;;;21.70;72.80;;;;;;5068249;28;20062;-58
2021/05/25 06:01:53;;;;;;;8.25;1.80;;;21.60;73.30;;;;;;5068935;28;20256;-48
2021/05/25 06:04:24;;;;;;;7.43;1.60;;;21.50;74.10;;;;;;5066560;28;20029;-50
2021/05/25 06:06:52;;;;;;;12.60;2.47;;;21.40;75.20;;;;;;5067747;28;20033;-49
2021/05/25 06:09:19;;;;;;;3.88;1.80;;;21.30;74.70;;;;;;5069395;28;20052;-46
2021/05/25 06:11:52;;;;;;;8.35;2.05;;;21.20;76.50;;;;;;5069572;28;20130;-48
2021/05/25 06:14:24;;;;;;;6.13;1.60;;;21.10;76.10;;;;;;5069357;28;20031;-51
2021/05/25 06:16:52;;;;;;;4.95;1.40;;;21.00;76.60;;;;;;5073539;28;20037;-50
2021/05/25 06:19:20;;;;;;;4.30;1.50;;;20.90;77.20;;;;;;5072530;28;20086;-58
2021/05/25 06:21:47;;;;;;;3.35;1.27;;;20.80;77.60;;;;;;5071694;28;20028;-52
2021/05/25 06:24:15;;;;;;;4.65;1.50;;;20.70;79.20;;;;;;5068315;28;20062;-54
2021/05/25 06:26:42;;;;;;;4.13;1.80;;;20.70;79.30;;;;;;5072263;28;20028;-50
2021/05/25 06:29:10;;;;;;;4.75;1.55;;;20.60;79.60;;;;;;5072304;28;20073;-49
2021/05/25 06:31:38;;;;;;;8.02;1.83;;;20.60;80.20;;;;;;5071577;28;20028;-57
2021/05/25 06:34:05;;;;;;;5.25;1.65;;;20.50;80.20;;;;;;5068434;28;20025;-43
2021/05/25 06:36:33;;;;;;;6.28;1.50;;;20.50;80.60;;;;;;5071911;28;20048;-49
2021/05/25 06:39:00;;;;;;;10.23;2.20;;;20.40;81.10;;;;;;5071756;28;20029;-51
2021/05/25 06:41:27;;;;;;;6.05;1.80;;;20.40;81.00;;;;;;5071374;28;20151;-51
2021/05/25 06:43:55;;;;;;;5.60;1.50;;;20.40;81.50;;;;;;5068402;28;20432;-52
2021/05/25 06:46:22;;;;;;;6.97;1.60;;;20.30;81.50;;;;;;5071897;28;20173;-48
2021/05/25 06:48:49;;;;;;;5.05;2.05;;;20.30;81.70;;;;;;5071428;28;20047;-50
2021/05/25 06:51:17;;;;;;;5.70;1.70;;;20.30;82.00;;;;;;5072044;28;20037;-46
2021/05/25 06:53:44;;;;;;;7.75;1.98;;;20.20;82.30;;;;;;5067579;28;20355;-53
2021/05/25 06:56:12;;;;;;;3.00;1.48;;;20.10;82.40;;;;;;5071961;28;20035;-47
2021/05/25 06:58:39;;;;;;;6.78;1.75;;;20.10;82.80;;;;;;5071231;28;20028;-50
2021/05/25 07:01:06;;;;;;;9.10;1.88;;;20.10;83.10;;;;;;5070550;28;20471;-50
2021/05/25 07:03:34;;;;;;;5.40;1.92;;;20.10;83.40;;;;;;5067622;28;20036;-47
2021/05/25 07:06:01;;;;;;;6.10;2.35;;;20.00;83.40;;;;;;5071402;28;20037;-52
2021/05/25 07:08:28;;;;;;;3.90;1.50;;;20.00;83.60;;;;;;5071809;28;20020;-51
2021/05/25 07:10:56;;;;;;;6.05;2.15;;;20.00;83.60;;;;;;5071091;28;20487;-53
2021/05/25 07:13:24;;;;;;;6.68;1.60;;;19.90;83.90;;;;;;5067444;28;20543;-54
2021/05/25 07:15:51;;;;;;;6.97;1.83;;;19.90;84.20;;;;;;5071243;28;20078;-53
2021/05/25 07:18:18;;;;;;;4.07;1.80;;;19.90;83.90;;;;;;5070380;28;20032;-51
2021/05/25 07:20:48;;;;;;;3.70;1.48;;;19.90;84.00;;;;;;5071197;28;20117;-60
2021/05/25 07:23:16;;;;;;;6.55;2.08;;;19.90;84.60;;;;;;5064664;28;20052;-54
2021/05/25 07:25:43;;;;;;;4.35;1.40;;;19.80;84.20;;;;;;5072055;28;20066;-56
2021/05/25 07:28:11;;;;;;;7.40;1.33;;;19.80;84.40;;;;;;5071381;28;20099;-55
2021/05/25 07:30:43;;;;;;;8.93;1.85;;;19.80;85.00;;;;;;5069514;28;20104;-52
2021/05/25 07:33:11;;;;;;;5.10;1.58;;;19.70;85.10;;;;;;5063328;28;20021;-57
2021/05/25 07:35:38;;;;;;;6.97;1.60;;;19.70;85.20;;;;;;5069796;28;20090;-47
2021/05/25 07:38:06;;;;;;;5.93;1.77;;;19.70;85.50;;;;;;5070918;28;20059;-52
2021/05/25 07:40:33;;;;;;;5.07;3.05;;;19.70;85.40;;;;;;5069308;28;20020;-53
2021/05/25 07:43:01;;;;;;;9.70;3.80;;;19.60;85.50;;;;;;5066631;28;20471;-53
2021/05/25 07:45:28;;;;;;;9.40;4.47;;;19.60;85.50;;;;;;5070651;28;20131;-60
2021/05/25 07:47:56;;;;;;;10.45;6.47;;;19.60;85.50;;;;;;5070522;28;20028;-54
2021/05/25 07:50:24;;;;;;;12.40;5.60;;;19.70;85.90;;;;;;5070495;28;20032;-49
2021/05/25 07:52:55;;;;;;;8.85;7.88;;;19.70;85.70;;;;;;5066647;28;20021;-45
2021/05/25 07:55:28;;;;;;;9.32;7.28;;;19.60;85.90;;;;;;5070113;28;20029;-49
2021/05/25 07:57:56;;;;;;;10.85;8.30;;;19.60;85.70;;;;;;5070871;28;20427;-53
2021/05/25 08:00:26;;;;;;;10.70;9.50;;;19.60;85.60;;;;;;5070285;28;20108;-51
2021/05/25 08:02:54;;;;;;;10.07;7.85;;;19.60;85.90;;;;;;5065856;28;20095;-52
2021/05/25 08:05:22;;;;;;;8.85;7.93;;;19.60;86.30;;;;;;5069273;28;20502;-53
2021/05/25 08:07:50;;;;;;;12.13;7.85;;;19.60;86.10;;;;;;5070718;28;20074;-60
2021/05/25 08:10:18;;;;;;;15.75;8.30;;;19.60;85.20;;;;;;5068108;28;20451;-53
2021/05/25 08:12:46;;;;;;;13.60;10.95;;;19.60;86.20;;;;;;5065181;28;20024;-52
2021/05/25 08:15:16;;;;;;;11.18;10.02;;;19.50;86.20;;;;;;5069796;28;20109;-51
2021/05/25 08:20:19;;;;;;;14.73;13.38;;;19.50;86.30;;;;;;5069306;28;20063;-55
2021/05/25 08:22:58;;;;;;;15.60;14.20;;;19.50;86.70;;;;;;5065868;28;20077;-51
2021/05/25 08:25:30;;;;;;;16.60;14.90;;;19.50;86.40;;;;;;5069087;28;20072;-53
2021/05/25 08:28:00;;;;;;;24.92;13.98;;;19.50;86.40;;;;;;5066749;28;20032;-49
2021/05/25 08:30:29;;;;;;;14.90;13.23;;;19.50;86.60;;;;;;5069897;28;20039;-56
2021/05/25 08:32:58;;;;;;;23.40;12.93;;;19.50;86.40;;;;;;5066004;28;20063;-52
2021/05/25 08:35:34;;;;;;;14.60;12.80;;;19.50;86.80;;;;;;5066000;28;20053;-55
2021/05/25 08:38:03;;;;;;;13.15;11.75;;;19.40;86.70;;;;;;5067183;28;20482;-46
2021/05/25 08:40:32;;;;;;;23.55;10.95;;;19.40;86.90;;;;;;5068650;28;20054;-50
2021/05/25 08:43:00;;;;;;;18.38;10.75;;;19.40;86.70;;;;;;5065911;28;20032;-50
2021/05/25 08:45:28;;;;;;;11.10;9.43;;;19.40;86.80;;;;;;5065694;28;20055;-53
2021/05/25 08:47:57;;;;;;;13.82;9.60;;;19.40;87.10;;;;;;5069505;28;20063;-55
2021/05/25 08:50:28;;;;;;;12.27;9.18;;;19.40;87.10;;;;;;5068405;28;20028;-52
2021/05/25 08:53:00;;;;;;;9.90;8.75;;;19.30;86.70;;;;;;5065830;28;20029;-45
2021/05/25 08:55:28;;;;;;;13.73;9.07;;;19.40;86.50;;;;;;5069176;28;20032;-50
2021/05/25 08:57:57;;;;;;;11.05;9.40;;;19.30;86.80;;;;;;5068911;28;20033;-52
2021/05/25 09:00:26;;;;;;;13.75;9.82;;;19.20;86.90;;;;;;5069569;28;20048;-49
2021/05/25 09:02:56;;;;;;;11.95;8.68;;;19.20;87.20;;;;;;5064970;28;20031;-49
2021/05/25 09:05:25;;;;;;;11.75;8.32;;;19.20;87.30;;;;;;5068455;28;20070;-56
2021/05/25 09:07:57;;;;;;;10.10;8.05;;;19.20;87.40;;;;;;5069849;28;20021;-62
2021/05/25 09:13:11;;;;;;;8.60;7.65;;;19.10;87.40;;;;;;5062525;28;20028;-58
2021/05/25 09:15:45;;;;;;;9.25;7.63;;;19.10;87.60;;;;;;5069278;28;20059;-56
2021/05/25 09:18:16;;;;;;;7.93;7.13;;;19.10;87.90;;;;;;5071232;28;20028;-56
2021/05/25 09:20:53;;;;;;;8.93;7.43;;;19.00;87.80;;;;;;5071449;28;20055;-62
2021/05/25 09:23:22;;;;;;;9.90;6.90;;;19.00;87.80;;;;;;5071248;28;20498;-49
2021/05/25 09:26:03;;;;;;;8.82;6.97;;;19.00;87.80;;;;;;5071639;28;20119;-55
2021/05/25 09:28:31;;;;;;;8.90;6.95;;;18.90;87.90;;;;;;5070986;28;20024;-60
2021/05/25 09:30:58;;;;;;;7.20;6.50;;;19.00;88.00;;;;;;5070557;28;20066;-61
2021/05/25 09:33:26;;;;;;;7.45;5.50;;;18.90;88.00;;;;;;5071921;28;20028;-55
2021/05/25 09:35:54;;;;;;;10.13;6.97;;;18.90;87.40;;;;;;5071619;28;20035;-61
2021/05/25 09:38:30;;;;;;;7.78;6.97;;;18.90;88.30;;;;;;5071245;28;20085;-54
2021/05/25 09:41:02;;;;;;;11.48;7.13;;;18.90;88.40;;;;;;5071967;28;20035;-54
2021/05/25 09:43:33;;;;;;;13.38;7.40;;;18.90;88.30;;;;;;5071760;28;20379;-58
2021/05/25 09:46:14;;;;;;;12.07;7.65;;;18.90;88.60;;;;;;5071204;28;20029;-59
2021/05/25 09:48:44;;;;;;;15.55;8.05;;;18.90;88.40;;;;;;5064766;28;20024;-50
2021/05/25 09:51:24;;;;;;;26.77;8.07;;;18.90;88.60;;;;;;5064042;28;20028;-47
2021/05/25 09:53:53;;;;;;;20.52;9.07;;;18.90;90.00;;;;;;5069062;28;20491;-54
2021/05/25 09:56:28;;;;;;;22.42;10.18;;;19.00;89.60;;;;;;5066967;28;20102;-50
2021/05/25 09:58:57;;;;;;;22.23;9.02;;;19.00;89.50;;;;;;5070362;28;20100;-47
2021/05/25 10:01:38;;;;;;;21.52;7.45;;;19.00;89.50;;;;;;5068213;28;20032;-49
2021/05/25 10:04:15;;;;;;;18.80;9.50;;;19.00;89.40;;;;;;5068408;28;20115;-48
2021/05/25 10:06:45;;;;;;;16.23;8.40;;;19.00;89.20;;;;;;5064874;28;20049;-53
2021/05/25 10:09:13;;;;;;;22.38;11.15;;;19.00;89.50;;;;;;5068953;28;20088;-49
2021/05/25 10:11:47;;;;;;;17.17;8.68;;;19.00;89.60;;;;;;5068412;28;20052;-48
2021/05/25 10:14:17;;;;;;;20.73;9.65;;;19.10;89.70;;;;;;5068917;28;20074;-49
2021/05/25 10:16:47;;;;;;;19.05;8.77;;;19.00;90.00;;;;;;5065074;28;20122;-46
2021/05/25 10:21:51;;;;;;;18.55;8.27;;;19.10;89.60;;;;;;5068620;28;20418;-49
2021/05/25 10:24:18;;;;;;;16.13;8.57;;;19.10;89.50;;;;;;5065191;28;20466;-50
2021/05/25 10:26:46;;;;;;;19.98;8.57;;;19.10;89.60;;;;;;5064679;28;20040;-51
2021/05/25 10:29:15;;;;;;;18.30;8.60;;;19.10;89.40;;;;;;5068294;28;20051;-57
2021/05/25 10:31:48;;;;;;;16.98;8.20;;;19.10;89.20;;;;;;5067846;28;20064;-51
2021/05/25 10:34:17;;;;;;;18.08;7.70;;;19.10;89.30;;;;;;5068363;28;20025;-57
2021/05/25 10:36:47;;;;;;;21.25;8.48;;;19.10;89.30;;;;;;5063384;28;20044;-54
2021/05/25 10:39:30;;;;;;;18.17;7.78;;;19.10;89.40;;;;;;5067826;28;20100;-56
2021/05/25 10:42:21;;;;;;;19.92;7.32;;;19.00;89.10;;;;;;5067753;28;20124;-50
2021/05/25 10:45:21;;;;;;;11.57;6.88;;;19.10;89.30;;;;;;5058440;28;20040;-58
2021/05/25 10:48:08;;;;;;;14.93;7.45;;;19.10;89.30;;;;;;5044437;28;20476;-50
2021/05/25 10:50:45;;;;;;;13.93;6.45;;;19.10;89.20;;;;;;5065842;28;20087;-52
2021/05/25 10:53:25;;;;;;;10.60;6.68;;;19.10;89.10;;;;;;5067796;28;20033;-58
2021/05/25 10:55:53;;;;;;;11.55;5.82;;;19.10;88.90;;;;;;5068807;28;20032;-42
2021/05/25 10:58:34;;;;;;;13.15;6.47;;;19.10;88.90;;;;;;5064499;28;20158;-48
2021/05/25 11:01:09;;;;;;;13.23;6.95;;;19.00;89.10;;;;;;5068640;28;20028;-47
2021/05/25 11:03:37;;;;;;;11.40;5.70;;;19.00;89.10;;;;;;5071891;28;20085;-45
2021/05/25 11:06:06;;;;;;;11.88;5.28;;;18.90;89.10;;;;;;5069157;28;20222;-47
2021/05/25 11:08:37;;;;;;;13.23;5.82;;;18.90;89.10;;;;;;5069940;28;20040;-51
2021/05/25 11:11:10;;;;;;;10.68;5.60;;;18.90;89.10;;;;;;5071573;28;20086;-50
2021/05/25 11:13:43;;;;;;;12.85;5.80;;;18.90;89.10;;;;;;5071273;28;20016;-52
2021/05/25 11:16:20;;;;;;;12.05;6.13;;;18.90;89.40;;;;;;5069849;28;20166;-44
2021/05/25 11:19:03;;;;;;;14.43;6.13;;;18.80;89.20;;;;;;5069937;28;20057;-43
2021/05/25 11:24:31;;;;;;;12.35;6.10;;;18.80;89.10;;;;;;5069769;28;20031;-52
2021/05/25 11:27:13;;;;;;;11.00;5.38;;;18.70;89.20;;;;;;5068313;28;20045;-46
2021/05/25 11:29:56;;;;;;;15.77;5.90;;;18.70;88.80;;;;;;5071280;28;20130;-53
2021/05/25 11:32:42;;;;;;;14.23;5.85;;;18.70;89.20;;;;;;5071596;28;20363;-40
2021/05/25 11:35:11;;;;;;;11.75;5.22;;;18.70;89.00;;;;;;5071094;28;20063;-47
2021/05/25 11:37:42;;;;;;;14.20;5.25;;;18.70;89.20;;;;;;5067684;28;20491;-49
2021/05/25 11:40:14;;;;;;;11.63;5.20;;;18.70;89.20;;;;;;5071764;28;20071;-48
2021/05/25 11:42:45;;;;;;;10.18;5.45;;;18.70;88.60;;;;;;5071554;28;20261;-56
2021/05/25 11:45:13;;;;;;;10.40;4.68;;;18.70;89.30;;;;;;5072181;28;20093;-48
2021/05/25 11:47:41;;;;;;;12.20;5.57;;;18.70;88.90;;;;;;5069611;28;20032;-47
2021/05/25 11:50:13;;;;;;;11.73;4.93;;;18.70;89.20;;;;;;5070243;28;20052;-44
2021/05/25 11:52:43;;;;;;;9.20;4.45;;;18.70;89.30;;;;;;5071451;28;20092;-50
2021/05/25 11:55:13;;;;;;;10.45;4.70;;;18.70;89.00;;;;;;5071801;28;20102;-52
2021/05/25 11:57:48;;;;;;;9.77;4.80;;;18.70;89.00;;;;;;5067926;28;20027;-50
2021/05/25 12:00:19;;;;;;;14.05;5.07;;;18.70;89.10;;;;;;5070285;28;20390;-53
2021/05/25 12:03:00;;;;;;;9.90;3.97;;;18.70;89.00;;;;;;5070342;28;20035;-59
2021/05/25 12:05:32;;;;;;;7.57;3.88;;;18.70;89.50;;;;;;5071354;28;20036;-55
2021/05/25 12:08:02;;;;;;;8.68;3.92;;;18.70;88.70;;;;;;5064332;28;20024;-52
2021/05/25 12:10:35;;;;;;;9.57;4.10;;;18.70;88.70;;;;;;5068827;28;20128;-48
2021/05/25 12:13:07;;;;;;;7.63;4.00;;;18.70;88.60;;;;;;5067316;28;20025;-48
2021/05/25 12:15:41;;;;;;;7.07;3.67;;;18.70;88.80;;;;;;5070857;28;20050;-49
2021/05/25 12:18:13;;;;;;;8.73;3.70;;;18.70;88.70;;;;;;5067640;28;20048;-49
2021/05/25 12:20:45;;;;;;;7.75;3.50;;;18.70;88.70;;;;;;5070481;28;20371;-53
2021/05/25 12:23:18;;;;;;;6.77;3.30;;;18.70;88.80;;;;;;5068634;28;20033;-51
2021/05/25 12:25:51;;;;;;;6.80;3.78;;;18.70;88.50;;;;;;5068813;28;20044;-51
2021/05/25 12:28:33;;;;;;;7.93;3.75;;;18.70;88.60;;;;;;5066763;28;20021;-53
2021/05/25 12:31:02;;;;;;;9.52;3.30;;;18.70;88.50;;;;;;5066486;28;20356;-51
2021/05/25 12:33:31;;;;;;;6.40;3.00;;;18.60;88.40;;;;;;5070777;28;20137;-53
2021/05/25 12:36:24;;;;;;;5.40;2.90;;;18.70;88.50;;;;;;5069152;28;20418;-49
2021/05/25 12:39:04;;;;;;;7.00;2.90;;;18.70;88.40;;;;;;5069096;28;20059;-49
2021/05/25 12:41:42;;;;;;;8.38;2.70;;;18.70;88.30;;;;;;5068354;28;20526;-47
2021/05/25 12:44:19;;;;;;;9.07;4.20;;;18.70;88.30;;;;;;5067826;28;20068;-54
2021/05/25 12:47:08;;;;;;;8.07;2.95;;;18.60;88.30;;;;;;5059689;28;20491;-43
2021/05/25 12:49:38;;;;;;;6.55;3.50;;;18.60;88.30;;;;;;5069156;28;20036;-44
2021/05/25 12:52:25;;;;;;;6.05;3.30;;;18.60;88.20;;;;;;5070177;28;20383;-45
2021/05/25 12:55:10;;;;;;;9.18;2.70;;;18.50;88.50;;;;;;5070160;28;20032;-50
2021/05/25 12:57:49;;;;;;;10.52;2.70;;;18.50;88.50;;;;;;5064738;28;20024;-49
2021/05/25 13:00:28;;;;;;;10.55;2.85;;;18.50;88.40;;;;;;5069797;28;20551;-55
2021/05/25 13:02:57;;;;;;;6.32;2.70;;;18.50;88.70;;;;;;5068154;28;20051;-54
2021/05/25 13:05:25;;;;;;;9.85;3.15;;;18.50;88.60;;;;;;5069568;28;20067;-55
2021/05/25 13:08:05;;;;;;;7.75;2.65;;;18.50;88.60;;;;;;5067350;28;20024;-54
2021/05/25 13:10:52;;;;;;;4.60;2.28;;;18.50;88.60;;;;;;5069126;28;20552;-54
2021/05/25 13:13:25;;;;;;;10.20;2.78;;;18.50;88.30;;;;;;5068275;28;20151;-57
2021/05/25 13:15:57;;;;;;;3.47;1.77;;;18.50;88.60;;;;;;5069771;28;20028;-58